Time;durP1;ratioP1;P1;durP2;ratioP2;P2;SDS_P1;SDS_P2;PMS_P1;PMS_P2;Temp;Humidity;BMP_temperature;BMP_pressure;BME280_temperature;BME280_humidity;BME280_pressure;Samples;Min_cycle;Max_cycle;Signal;HPM_P1;HPM_P2
2021/11/14 00:01:32;;;;;;;36.08;30.45;;;11.30;99.90;;;;;;5092544;28;20689;-65
2021/11/14 00:04:01;;;;;;;32.85;29.08;;;11.30;99.90;;;;;;5093283;28;20226;-65
2021/11/14 00:06:28;;;;;;;35.90;29.60;;;11.30;99.90;;;;;;5093110;28;20227;-65
2021/11/14 00:08:55;;;;;;;36.28;30.00;;;11.40;99.90;;;;;;5092420;28;20226;-65
2021/11/14 00:11:23;;;;;;;32.88;29.02;;;11.30;99.90;;;;;;5079643;28;20589;-66
2021/11/14 00:13:51;;;;;;;39.63;32.17;;;11.40;99.90;;;;;;5092569;28;20849;-66
2021/11/14 00:16:20;;;;;;;39.40;31.30;;;11.40;99.90;;;;;;5092424;28;20577;-65
2021/11/14 00:18:47;;;;;;;38.13;31.65;;;11.40;99.90;;;;;;5092636;28;20223;-65
2021/11/14 00:21:19;;;;;;;37.58;31.10;;;11.40;99.90;;;;;;5092740;28;20292;-65
2021/11/14 00:23:46;;;;;;;40.30;33.15;;;11.40;99.90;;;;;;5092111;28;20579;-65
2021/11/14 00:26:14;;;;;;;35.40;31.10;;;11.40;99.90;;;;;;5092453;28;20224;-65
2021/11/14 00:28:43;;;;;;;43.45;31.17;;;11.50;99.90;;;;;;5092380;28;20227;-65
2021/11/14 00:31:10;;;;;;;37.13;30.08;;;11.50;99.90;;;;;;5090124;28;20251;-65
2021/11/14 00:33:41;;;;;;;32.72;26.50;;;11.50;99.90;;;;;;5092396;28;20216;-65
2021/11/14 00:36:08;;;;;;;31.45;26.65;;;11.50;99.90;;;;;;5092919;28;20577;-65
2021/11/14 00:38:36;;;;;;;31.98;28.20;;;11.40;99.90;;;;;;5092147;28;20227;-65
2021/11/14 00:41:04;;;;;;;31.20;27.15;;;11.40;99.90;;;;;;5092727;28;20235;-65
2021/11/14 00:43:31;;;;;;;33.25;25.45;;;11.40;99.90;;;;;;5092490;28;20306;-65
2021/11/14 00:45:58;;;;;;;32.53;25.95;;;11.40;99.90;;;;;;5092004;28;20998;-65
2021/11/14 00:48:25;;;;;;;27.67;24.67;;;11.50;99.90;;;;;;5082956;28;20228;-64
2021/11/14 00:50:53;;;;;;;31.55;26.30;;;11.50;99.90;;;;;;5090817;28;20231;-64
2021/11/14 00:53:20;;;;;;;31.08;27.58;;;11.40;99.90;;;;;;5092182;28;20254;-64
2021/11/14 00:55:50;;;;;;;31.48;28.20;;;11.40;99.90;;;;;;5092156;28;20241;-64
2021/11/14 00:58:17;;;;;;;34.28;28.20;;;11.40;99.90;;;;;;5092723;28;20572;-65
2021/11/14 01:00:45;;;;;;;30.98;26.08;;;11.40;99.90;;;;;;5091792;28;20282;-65
2021/11/14 01:03:12;;;;;;;30.17;26.77;;;11.40;99.90;;;;;;5092596;28;20227;-66
2021/11/14 01:05:42;;;;;;;33.78;26.15;;;11.40;99.90;;;;;;5091598;28;20231;-66
2021/11/14 01:08:10;;;;;;;31.73;27.52;;;11.40;99.90;;;;;;5092010;28;20231;-64
2021/11/14 01:10:40;;;;;;;29.80;26.60;;;11.40;99.90;;;;;;5089335;28;20235;-66
2021/11/14 01:13:08;;;;;;;32.75;27.40;;;11.30;99.90;;;;;;5092271;28;20288;-66
2021/11/14 01:15:36;;;;;;;28.23;25.20;;;11.30;99.90;;;;;;5091895;28;20223;-65
2021/11/14 01:18:04;;;;;;;27.48;22.70;;;11.30;99.90;;;;;;5092235;28;20223;-65
2021/11/14 01:20:34;;;;;;;23.83;21.30;;;11.30;99.90;;;;;;5092063;28;20220;-66
2021/11/14 01:23:02;;;;;;;27.45;23.35;;;11.30;99.90;;;;;;5095831;28;20227;-66
2021/11/14 01:25:30;;;;;;;27.13;21.80;;;11.30;99.90;;;;;;5096550;28;20254;-65
2021/11/14 01:27:57;;;;;;;25.75;21.73;;;11.20;99.90;;;;;;5095759;28;20241;-65
2021/11/14 01:30:29;;;;;;;25.00;20.65;;;11.20;99.90;;;;;;5095773;28;20227;-65
2021/11/14 01:32:57;;;;;;;28.73;23.00;;;11.20;99.90;;;;;;5095830;28;20219;-66
2021/11/14 01:35:25;;;;;;;26.65;20.83;;;11.20;99.90;;;;;;5096007;28;20227;-65
2021/11/14 01:37:54;;;;;;;22.58;20.25;;;11.20;99.90;;;;;;5095494;28;20227;-65
2021/11/14 01:40:24;;;;;;;25.55;20.30;;;11.20;99.90;;;;;;5095942;28;20609;-65
2021/11/14 01:42:51;;;;;;;31.38;20.38;;;11.20;99.90;;;;;;5095159;28;20557;-65
2021/11/14 01:45:19;;;;;;;22.80;20.00;;;11.20;99.90;;;;;;5095857;28;20697;-65
2021/11/14 01:47:48;;;;;;;23.17;20.33;;;11.20;99.90;;;;;;5089102;28;20231;-65
2021/11/14 01:50:17;;;;;;;24.65;20.92;;;11.20;99.90;;;;;;5084250;28;20232;-65
2021/11/14 01:52:46;;;;;;;22.52;19.65;;;11.10;99.90;;;;;;5093960;28;20231;-65
2021/11/14 01:55:18;;;;;;;23.58;21.02;;;11.20;99.90;;;;;;5095678;28;20223;-65
2021/11/14 01:57:46;;;;;;;24.40;20.08;;;11.10;99.90;;;;;;5095337;28;20238;-65
2021/11/14 02:00:16;;;;;;;22.23;19.83;;;11.10;99.90;;;;;;5094842;28;20228;-65
2021/11/14 02:02:43;;;;;;;22.40;19.00;;;11.10;99.90;;;;;;5095021;28;20227;-66
2021/11/14 02:05:12;;;;;;;20.63;18.10;;;11.10;99.90;;;;;;5095423;28;20235;-65
2021/11/14 02:07:40;;;;;;;24.60;20.30;;;11.00;99.90;;;;;;5095123;28;20231;-65
2021/11/14 02:10:09;;;;;;;23.67;21.30;;;11.10;99.90;;;;;;5092495;28;20227;-65
2021/11/14 02:12:36;;;;;;;24.90;21.35;;;11.10;99.90;;;;;;5094856;28;20684;-65
2021/11/14 02:15:04;;;;;;;22.50;20.10;;;11.00;99.90;;;;;;5094914;28;20657;-65
2021/11/14 02:17:31;;;;;;;21.88;19.75;;;11.10;99.90;;;;;;5092952;28;20606;-65
2021/11/14 02:20:00;;;;;;;21.95;18.80;;;11.00;99.90;;;;;;5094571;28;20545;-65
2021/11/14 02:22:27;;;;;;;23.45;20.38;;;11.00;99.90;;;;;;5094751;28;20223;-65
2021/11/14 02:24:54;;;;;;;22.60;19.13;;;11.00;99.90;;;;;;5094774;28;20227;-65
2021/11/14 02:27:21;;;;;;;21.27;18.42;;;11.00;99.90;;;;;;5094554;28;20223;-65
2021/11/14 02:29:48;;;;;;;25.60;21.13;;;11.00;99.90;;;;;;5094596;28;20246;-65
2021/11/14 02:32:15;;;;;;;23.02;18.77;;;11.00;99.90;;;;;;5094216;28;20223;-65
2021/11/14 02:34:42;;;;;;;23.05;18.45;;;11.00;99.90;;;;;;5093749;28;20720;-65
2021/11/14 02:37:10;;;;;;;21.08;18.10;;;11.00;99.90;;;;;;5094946;28;20234;-65
2021/11/14 02:39:37;;;;;;;21.38;19.15;;;11.00;99.90;;;;;;5094831;28;20231;-66
2021/11/14 02:42:05;;;;;;;23.17;18.85;;;10.90;99.90;;;;;;5094084;28;20288;-66
2021/11/14 02:44:32;;;;;;;21.33;18.52;;;11.00;99.90;;;;;;5094805;28;20215;-65
2021/11/14 02:46:59;;;;;;;20.98;18.65;;;11.00;99.90;;;;;;5093990;28;20284;-66
2021/11/14 02:49:27;;;;;;;21.98;18.63;;;10.90;99.90;;;;;;5094844;28;20223;-65
2021/11/14 02:51:54;;;;;;;21.73;19.40;;;10.90;99.90;;;;;;5094305;28;20221;-66
2021/11/14 02:54:22;;;;;;;23.05;19.85;;;10.90;99.90;;;;;;5094278;28;20273;-66
2021/11/14 02:56:51;;;;;;;22.77;19.45;;;10.90;99.90;;;;;;5089045;28;20231;-66
2021/11/14 02:59:19;;;;;;;22.60;18.70;;;10.90;99.90;;;;;;5087500;28;20223;-65
2021/11/14 03:01:48;;;;;;;22.70;19.88;;;10.90;99.90;;;;;;5094087;28;20215;-66
2021/11/14 03:04:19;;;;;;;23.05;19.40;;;10.90;99.90;;;;;;5094271;28;20285;-66
2021/11/14 03:06:47;;;;;;;24.50;19.38;;;10.90;99.90;;;;;;5093379;28;20231;-66
2021/11/14 03:09:14;;;;;;;22.45;20.05;;;10.90;99.90;;;;;;5092719;28;20228;-66
2021/11/14 03:11:42;;;;;;;20.05;17.50;;;10.80;99.90;;;;;;5091422;28;20219;-66
2021/11/14 03:14:10;;;;;;;22.80;20.40;;;10.80;99.90;;;;;;5092981;28;20211;-65
2021/11/14 03:16:38;;;;;;;25.23;20.15;;;10.80;99.90;;;;;;5093903;28;20219;-65
2021/11/14 03:19:05;;;;;;;23.02;18.15;;;10.80;99.90;;;;;;5093514;28;20306;-66
2021/11/14 03:21:33;;;;;;;25.40;19.67;;;10.80;99.90;;;;;;5093652;28;20234;-66
2021/11/14 03:24:00;;;;;;;21.75;18.30;;;10.80;99.90;;;;;;5093169;28;20234;-65
2021/11/14 03:26:28;;;;;;;22.17;18.60;;;10.70;99.90;;;;;;5094026;28;20605;-65
2021/11/14 03:28:57;;;;;;;22.02;17.35;;;10.70;99.90;;;;;;5093307;28;20692;-65
2021/11/14 03:31:26;;;;;;;23.65;17.70;;;10.70;99.90;;;;;;5093830;28;20227;-65
2021/11/14 03:33:53;;;;;;;21.85;18.27;;;10.70;99.90;;;;;;5093081;28;20228;-65
2021/11/14 03:36:20;;;;;;;22.23;16.98;;;10.70;99.90;;;;;;5093812;28;20223;-65
2021/11/14 03:38:48;;;;;;;20.60;17.52;;;10.70;99.90;;;;;;5092874;28;20215;-66
2021/11/14 03:41:19;;;;;;;21.98;19.55;;;10.70;99.90;;;;;;5093870;28;20691;-66
2021/11/14 03:43:47;;;;;;;22.42;18.85;;;10.70;99.90;;;;;;5093260;28;20242;-66
2021/11/14 03:46:16;;;;;;;22.48;18.95;;;10.70;99.90;;;;;;5093619;28;20219;-65
2021/11/14 03:48:45;;;;;;;22.05;18.63;;;10.70;99.90;;;;;;5082937;28;20235;-66
2021/11/14 03:51:14;;;;;;;21.92;18.98;;;10.70;99.90;;;;;;5093226;28;20235;-66
2021/11/14 03:53:41;;;;;;;24.30;19.73;;;10.70;99.90;;;;;;5080234;28;20215;-66
2021/11/14 03:56:09;;;;;;;26.40;20.02;;;10.70;99.90;;;;;;5092932;28;20226;-66
2021/11/14 03:58:37;;;;;;;21.25;18.55;;;10.70;99.90;;;;;;5093402;28;20219;-66
2021/11/14 04:01:08;;;;;;;21.17;19.15;;;10.70;99.90;;;;;;5092914;28;20234;-66
2021/11/14 04:03:37;;;;;;;24.42;20.13;;;10.70;99.90;;;;;;5093189;28;20223;-66
2021/11/14 04:06:06;;;;;;;21.45;17.70;;;10.70;99.90;;;;;;5092004;28;20238;-66
2021/11/14 04:08:33;;;;;;;23.80;19.58;;;10.70;99.90;;;;;;5092394;28;20640;-66
2021/11/14 04:11:02;;;;;;;23.77;18.92;;;10.70;99.90;;;;;;5089755;28;20606;-65
2021/11/14 04:13:31;;;;;;;22.83;19.20;;;10.70;99.90;;;;;;5093262;28;20815;-65
2021/11/14 04:16:00;;;;;;;20.67;18.45;;;10.70;99.90;;;;;;5092512;28;20230;-66
2021/11/14 04:18:27;;;;;;;22.38;20.05;;;10.70;99.90;;;;;;5093081;28;20664;-65
2021/11/14 04:20:56;;;;;;;22.23;17.55;;;10.70;99.90;;;;;;5092678;28;20562;-65
2021/11/14 04:23:23;;;;;;;23.45;19.77;;;10.70;99.90;;;;;;5093087;28;20227;-65
2021/11/14 04:25:50;;;;;;;25.27;18.35;;;10.70;99.90;;;;;;5092653;28;20226;-65
2021/11/14 04:28:18;;;;;;;22.90;19.65;;;10.70;99.90;;;;;;5091952;28;20297;-65
2021/11/14 04:30:47;;;;;;;22.40;17.50;;;10.60;99.90;;;;;;5092845;28;20242;-66
2021/11/14 04:33:15;;;;;;;22.02;18.08;;;10.60;99.90;;;;;;5091876;28;20254;-66
2021/11/14 04:35:43;;;;;;;21.67;18.70;;;10.60;99.90;;;;;;5092537;28;20219;-66
2021/11/14 04:38:12;;;;;;;25.13;20.27;;;10.60;99.90;;;;;;5092384;28;20223;-65
2021/11/14 04:40:42;;;;;;;21.55;18.67;;;10.60;99.90;;;;;;5092755;28;20700;-65
2021/11/14 04:43:10;;;;;;;22.45;18.83;;;10.60;99.90;;;;;;5096133;27;20223;-66
2021/11/14 04:45:38;;;;;;;27.35;19.63;;;10.60;99.90;;;;;;5092872;28;20223;-65
2021/11/14 04:48:06;;;;;;;27.00;18.63;;;10.50;99.90;;;;;;5092098;28;20228;-65
2021/11/14 04:50:35;;;;;;;21.88;17.92;;;10.50;99.90;;;;;;5092596;28;20246;-66
2021/11/14 04:53:04;;;;;;;22.45;16.90;;;10.40;99.90;;;;;;5090016;28;20277;-66
2021/11/14 04:55:33;;;;;;;24.77;19.88;;;10.50;99.90;;;;;;5092123;28;20223;-66
2021/11/14 04:58:00;;;;;;;22.30;18.48;;;10.50;99.90;;;;;;5092153;28;20562;-65
2021/11/14 05:00:30;;;;;;;22.70;18.67;;;10.40;99.90;;;;;;5101346;27;20675;-66
2021/11/14 05:02:57;;;;;;;25.30;18.08;;;10.40;99.90;;;;;;5092134;28;20228;-66
2021/11/14 05:05:25;;;;;;;23.90;18.10;;;10.40;99.90;;;;;;5092192;28;20234;-65
2021/11/14 05:07:52;;;;;;;21.85;18.50;;;10.40;99.90;;;;;;5092483;28;20230;-65
2021/11/14 05:10:19;;;;;;;22.70;17.70;;;10.40;99.90;;;;;;5088938;28;20684;-66
2021/11/14 05:12:47;;;;;;;21.90;17.98;;;10.40;99.90;;;;;;5092341;28;20215;-66
2021/11/14 05:15:14;;;;;;;23.30;19.02;;;10.40;99.90;;;;;;5092053;28;20572;-65
2021/11/14 05:17:41;;;;;;;25.10;19.83;;;10.30;99.90;;;;;;5092034;28;20223;-66
2021/11/14 05:20:10;;;;;;;22.20;18.50;;;10.30;99.90;;;;;;5089248;28;20644;-65
2021/11/14 05:22:37;;;;;;;26.75;19.75;;;10.30;99.90;;;;;;5089448;28;20838;-66
2021/11/14 05:25:06;;;;;;;26.00;20.80;;;10.30;99.90;;;;;;5090067;28;20226;-66
2021/11/14 05:27:33;;;;;;;30.02;21.98;;;10.30;99.90;;;;;;5090692;28;20229;-65
2021/11/14 05:30:01;;;;;;;28.25;21.88;;;10.30;99.90;;;;;;5090209;28;20231;-65
2021/11/14 05:32:28;;;;;;;24.73;19.63;;;10.30;99.90;;;;;;5090535;28;20231;-65
2021/11/14 05:34:55;;;;;;;21.45;18.73;;;10.30;99.90;;;;;;5091538;28;20227;-65
2021/11/14 05:37:22;;;;;;;26.58;19.90;;;10.30;99.90;;;;;;5092140;28;20215;-65
2021/11/14 05:39:49;;;;;;;27.02;21.10;;;10.30;99.90;;;;;;5092194;28;20235;-65
2021/11/14 05:42:16;;;;;;;26.13;21.25;;;10.30;99.90;;;;;;5091758;28;20235;-66
2021/11/14 05:44:43;;;;;;;24.42;19.48;;;10.30;99.90;;;;;;5092287;28;20230;-65
2021/11/14 05:47:11;;;;;;;20.88;18.63;;;10.30;99.90;;;;;;5080946;28;21013;-65
2021/11/14 05:49:38;;;;;;;24.08;18.85;;;10.30;99.90;;;;;;5072004;28;20671;-65
2021/11/14 05:52:06;;;;;;;28.70;20.58;;;10.30;99.90;;;;;;5071734;28;20220;-65
2021/11/14 05:54:33;;;;;;;58.22;35.13;;;10.30;99.90;;;;;;5072201;28;20289;-65
2021/11/14 05:57:00;;;;;;;27.02;19.58;;;10.20;99.90;;;;;;5071770;28;20232;-65
2021/11/14 05:59:34;;;;;;;28.40;22.63;;;10.20;99.90;;;;;;5071832;28;20846;-65
2021/11/14 06:02:05;;;;;;;27.35;20.15;;;10.20;99.90;;;;;;5071665;28;20228;-65
2021/11/14 06:04:38;;;;;;;30.73;23.45;;;10.10;99.90;;;;;;5072116;28;20220;-65
2021/11/14 06:07:05;;;;;;;25.60;21.10;;;10.00;99.90;;;;;;5071585;28;20255;-65
2021/11/14 06:09:32;;;;;;;24.77;21.10;;;10.00;99.90;;;;;;5074608;28;20650;-65
2021/11/14 06:11:59;;;;;;;23.27;17.90;;;10.00;99.90;;;;;;5091780;28;20230;-65
2021/11/14 06:14:26;;;;;;;23.67;19.67;;;10.00;99.90;;;;;;5095589;28;20803;-65
2021/11/14 06:16:53;;;;;;;27.77;19.73;;;9.90;99.90;;;;;;5094179;28;20296;-65
2021/11/14 06:19:20;;;;;;;23.75;18.73;;;9.80;99.90;;;;;;5100996;27;20222;-65
2021/11/14 06:21:48;;;;;;;23.13;18.27;;;9.70;99.90;;;;;;5095728;28;20215;-65
2021/11/14 06:24:15;;;;;;;28.20;20.33;;;9.70;99.90;;;;;;5094990;28;20223;-65
2021/11/14 06:26:44;;;;;;;24.55;19.30;;;9.60;99.90;;;;;;5095475;28;20246;-65
2021/11/14 06:29:10;;;;;;;24.10;18.58;;;9.50;99.90;;;;;;5095002;28;20606;-65
2021/11/14 06:31:38;;;;;;;23.45;18.73;;;9.40;99.90;;;;;;5095137;28;20231;-65
2021/11/14 06:34:05;;;;;;;24.67;19.55;;;9.40;99.90;;;;;;5094651;28;20231;-65
2021/11/14 06:36:33;;;;;;;24.80;19.45;;;9.20;99.90;;;;;;5095464;28;20219;-65
2021/11/14 06:39:03;;;;;;;25.88;19.17;;;9.20;99.90;;;;;;5094888;28;20223;-65
2021/11/14 06:41:30;;;;;;;26.05;19.30;;;9.10;99.90;;;;;;5095057;28;20337;-65
2021/11/14 06:43:57;;;;;;;25.65;19.15;;;9.10;99.90;;;;;;5094916;28;20220;-66
2021/11/14 06:46:24;;;;;;;23.02;18.67;;;9.10;99.90;;;;;;5094479;28;20223;-65
2021/11/14 06:48:50;;;;;;;24.83;17.80;;;9.00;99.90;;;;;;5095127;28;20554;-65
2021/11/14 06:51:18;;;;;;;27.45;21.70;;;9.10;99.90;;;;;;5094504;28;20227;-65
2021/11/14 06:53:45;;;;;;;26.50;20.60;;;8.90;99.90;;;;;;5094825;28;20227;-65
2021/11/14 06:56:13;;;;;;;24.23;19.05;;;8.90;99.90;;;;;;5094420;28;20230;-66
2021/11/14 06:58:40;;;;;;;24.52;18.80;;;8.90;99.90;;;;;;5094828;28;20215;-65
2021/11/14 07:01:07;;;;;;;26.17;19.33;;;8.80;99.90;;;;;;5094202;28;20265;-65
2021/11/14 07:03:34;;;;;;;36.67;25.27;;;8.80;99.90;;;;;;5094808;28;20226;-65
2021/11/14 07:06:01;;;;;;;32.05;21.38;;;8.80;99.90;;;;;;5094657;28;20238;-65
2021/11/14 07:08:28;;;;;;;34.10;22.10;;;8.80;99.90;;;;;;5093967;28;20615;-66
2021/11/14 07:10:55;;;;;;;28.85;21.00;;;8.80;99.90;;;;;;5094569;28;20328;-65
2021/11/14 07:13:23;;;;;;;27.70;21.27;;;8.80;99.90;;;;;;5094021;28;20227;-65
2021/11/14 07:15:50;;;;;;;25.73;20.95;;;8.90;99.90;;;;;;5094510;28;20219;-65
2021/11/14 07:18:17;;;;;;;29.65;24.40;;;8.90;99.90;;;;;;5094030;28;20750;-65
2021/11/14 07:20:44;;;;;;;28.08;21.17;;;8.90;99.90;;;;;;5093787;28;20230;-66
2021/11/14 07:23:11;;;;;;;27.55;20.02;;;8.90;99.90;;;;;;5093617;28;20226;-65
2021/11/14 07:25:39;;;;;;;31.73;23.42;;;8.90;99.90;;;;;;5093935;28;20288;-65
2021/11/14 07:28:06;;;;;;;25.35;18.95;;;8.90;99.90;;;;;;5094052;28;20232;-65
2021/11/14 07:30:34;;;;;;;32.17;23.55;;;9.00;99.90;;;;;;5093578;28;20703;-65
2021/11/14 07:33:01;;;;;;;31.05;22.98;;;8.90;99.90;;;;;;5094107;28;20227;-65
2021/11/14 07:35:28;;;;;;;28.20;20.73;;;8.90;99.90;;;;;;5093645;28;20696;-65
2021/11/14 07:37:55;;;;;;;28.63;21.17;;;9.00;99.90;;;;;;5093938;28;20238;-65
2021/11/14 07:40:24;;;;;;;28.17;21.55;;;9.00;99.90;;;;;;5093582;28;20235;-66
2021/11/14 07:42:51;;;;;;;33.28;19.70;;;9.00;99.90;;;;;;5093737;27;20235;-66
2021/11/14 07:45:21;;;;;;;32.58;21.70;;;8.90;99.90;;;;;;5093320;28;20223;-66
2021/11/14 07:47:50;;;;;;;31.65;22.33;;;8.90;99.90;;;;;;5093927;28;20243;-66
2021/11/14 07:50:18;;;;;;;26.95;22.05;;;8.90;99.90;;;;;;5093158;28;20242;-66
2021/11/14 07:52:46;;;;;;;31.75;21.85;;;9.00;99.90;;;;;;5093648;28;20666;-66
2021/11/14 07:55:14;;;;;;;34.65;24.10;;;9.00;99.90;;;;;;5093379;28;20648;-66
2021/11/14 07:57:44;;;;;;;32.90;23.20;;;9.00;99.90;;;;;;5093683;28;20227;-66
2021/11/14 08:00:12;;;;;;;33.10;25.30;;;9.00;99.90;;;;;;5093116;28;20608;-66
2021/11/14 08:02:39;;;;;;;40.80;24.17;;;9.00;99.90;;;;;;5093785;28;20223;-66
2021/11/14 08:05:09;;;;;;;39.05;26.65;;;9.00;99.90;;;;;;5093575;28;20708;-66
2021/11/14 08:07:36;;;;;;;32.50;22.40;;;9.00;99.90;;;;;;5093084;28;20215;-66
2021/11/14 08:10:04;;;;;;;36.65;25.05;;;9.10;99.90;;;;;;5093183;28;20227;-66
2021/11/14 08:12:31;;;;;;;38.05;24.15;;;9.20;99.90;;;;;;5093010;28;20230;-66
2021/11/14 08:14:58;;;;;;;37.45;24.52;;;9.20;99.90;;;;;;5093273;28;20215;-66
2021/11/14 08:17:26;;;;;;;33.85;24.15;;;9.20;99.90;;;;;;5092943;28;20227;-66
2021/11/14 08:19:55;;;;;;;38.78;25.45;;;9.30;99.90;;;;;;5093036;28;20241;-67
2021/11/14 08:22:23;;;;;;;45.72;26.70;;;9.30;99.90;;;;;;5092993;28;20674;-66
2021/11/14 08:24:50;;;;;;;48.10;29.88;;;9.40;99.90;;;;;;5093207;28;20223;-66
2021/11/14 08:27:17;;;;;;;39.88;25.65;;;9.40;99.90;;;;;;5092859;28;20219;-66
2021/11/14 08:29:44;;;;;;;36.85;25.45;;;9.40;99.90;;;;;;5093025;28;20231;-66
2021/11/14 08:32:11;;;;;;;42.72;25.55;;;9.40;99.90;;;;;;5092242;28;20249;-66
2021/11/14 08:34:38;;;;;;;42.08;27.00;;;9.50;99.90;;;;;;5092613;28;20786;-66
2021/11/14 08:37:05;;;;;;;44.45;28.73;;;9.40;99.90;;;;;;5093176;28;20235;-66
2021/11/14 08:39:33;;;;;;;43.55;27.75;;;9.40;99.90;;;;;;5092503;28;20228;-66
2021/11/14 08:42:00;;;;;;;39.35;26.70;;;9.40;99.90;;;;;;5092834;28;20223;-66
2021/11/14 08:44:28;;;;;;;44.67;28.15;;;9.40;99.90;;;;;;5092391;28;20227;-66
2021/11/14 08:46:55;;;;;;;39.25;26.98;;;9.50;99.90;;;;;;5092668;28;20238;-66
2021/11/14 08:49:22;;;;;;;38.00;26.27;;;9.40;99.90;;;;;;5074462;28;20588;-66
2021/11/14 08:51:49;;;;;;;40.88;28.25;;;9.50;99.90;;;;;;5072798;28;20223;-66
2021/11/14 08:54:17;;;;;;;44.53;29.58;;;9.50;99.90;;;;;;5072112;28;20231;-66
2021/11/14 08:56:45;;;;;;;40.88;28.20;;;9.50;99.90;;;;;;5072640;28;20228;-66
2021/11/14 08:59:12;;;;;;;44.38;27.40;;;9.50;99.90;;;;;;5072616;28;20228;-66
2021/11/14 09:01:40;;;;;;;45.03;28.00;;;9.50;99.90;;;;;;5072149;28;20674;-67
2021/11/14 09:04:08;;;;;;;47.13;28.33;;;9.50;99.90;;;;;;5072484;28;20223;-66
2021/11/14 09:06:35;;;;;;;44.97;27.80;;;9.50;99.90;;;;;;5072219;28;20247;-66
2021/11/14 09:09:04;;;;;;;45.20;28.90;;;9.50;99.90;;;;;;5072227;28;20224;-66
2021/11/14 09:11:31;;;;;;;41.63;29.65;;;9.50;99.90;;;;;;5072032;28;20224;-66
2021/11/14 09:13:59;;;;;;;45.92;29.10;;;9.50;99.90;;;;;;5072505;28;20224;-66
2021/11/14 09:16:28;;;;;;;61.63;36.60;;;9.60;99.90;;;;;;5071992;28;20236;-66
2021/11/14 09:18:55;;;;;;;50.28;34.50;;;9.60;99.90;;;;;;5072301;28;20216;-66
2021/11/14 09:21:22;;;;;;;51.00;35.05;;;9.60;99.90;;;;;;5088323;28;20710;-66
2021/11/14 09:23:49;;;;;;;56.53;34.13;;;9.50;99.90;;;;;;5092505;28;20219;-66
2021/11/14 09:26:17;;;;;;;52.33;34.45;;;9.50;99.90;;;;;;5092512;28;20611;-66
2021/11/14 09:28:44;;;;;;;55.45;35.83;;;9.50;99.90;;;;;;5092133;28;20211;-66
2021/11/14 09:31:13;;;;;;;54.92;33.95;;;9.50;99.90;;;;;;5092347;28;20235;-65
2021/11/14 09:33:41;;;;;;;59.92;36.03;;;9.50;99.90;;;;;;5092095;28;20219;-65
2021/11/14 09:36:09;;;;;;;45.80;32.28;;;9.50;99.90;;;;;;5092415;28;20228;-65
2021/11/14 09:38:37;;;;;;;57.83;36.10;;;9.50;99.90;;;;;;5091917;28;20281;-64
2021/11/14 09:41:05;;;;;;;49.53;34.17;;;9.50;99.90;;;;;;5092337;28;20242;-64
2021/11/14 09:43:33;;;;;;;58.65;37.35;;;9.50;99.90;;;;;;5094971;28;20227;-64
2021/11/14 09:46:00;;;;;;;53.17;37.42;;;9.50;99.90;;;;;;5096011;28;20227;-65
2021/11/14 09:48:29;;;;;;;53.85;36.03;;;9.60;99.90;;;;;;5095613;28;20231;-65
2021/11/14 09:50:57;;;;;;;58.92;36.95;;;9.50;99.90;;;;;;5096050;28;20223;-65
2021/11/14 09:53:28;;;;;;;53.83;35.50;;;9.60;99.90;;;;;;5095534;28;20220;-65
2021/11/14 09:55:55;;;;;;;53.85;35.22;;;9.60;99.90;;;;;;5096015;28;20673;-65
2021/11/14 09:58:23;;;;;;;55.05;35.42;;;9.60;99.90;;;;;;5095345;28;20231;-65
2021/11/14 10:00:50;;;;;;;54.20;35.20;;;9.60;99.90;;;;;;5095816;28;20233;-65
2021/11/14 10:03:18;;;;;;;59.28;38.58;;;9.70;99.90;;;;;;5095844;28;20215;-65
2021/11/14 10:05:48;;;;;;;56.38;35.53;;;9.70;99.90;;;;;;5095434;28;20230;-65
2021/11/14 10:08:15;;;;;;;55.40;34.50;;;9.70;99.90;;;;;;5095716;28;20230;-65
2021/11/14 10:10:48;;;;;;;49.97;35.13;;;9.70;99.90;;;;;;5095148;28;20584;-65
2021/11/14 10:13:17;;;;;;;54.05;37.13;;;9.70;99.90;;;;;;5095764;28;20223;-65
2021/11/14 10:15:46;;;;;;;55.42;36.30;;;9.80;99.90;;;;;;5095131;28;20556;-65
2021/11/14 10:18:13;;;;;;;55.47;35.72;;;9.80;99.90;;;;;;5095563;28;20234;-65
2021/11/14 10:20:40;;;;;;;55.28;36.38;;;9.90;99.90;;;;;;5095059;28;20247;-65
2021/11/14 10:23:10;;;;;;;54.88;35.03;;;9.90;99.90;;;;;;5095390;28;20281;-66
2021/11/14 10:25:38;;;;;;;56.85;35.28;;;10.00;99.90;;;;;;5090652;28;20273;-66
2021/11/14 10:28:06;;;;;;;57.58;38.55;;;10.00;99.90;;;;;;5075400;28;20236;-66
2021/11/14 10:30:37;;;;;;;51.40;36.17;;;10.00;99.90;;;;;;5074365;28;20236;-66
2021/11/14 10:33:07;;;;;;;51.95;36.40;;;10.10;99.90;;;;;;5075117;28;20227;-66
2021/11/14 10:35:37;;;;;;;56.83;36.45;;;10.10;99.90;;;;;;5074911;28;20250;-66
2021/11/14 10:38:06;;;;;;;57.03;39.50;;;10.10;99.90;;;;;;5075065;28;20693;-66
2021/11/14 10:40:38;;;;;;;52.70;35.47;;;10.10;99.90;;;;;;5074422;28;20228;-66
2021/11/14 10:43:07;;;;;;;59.03;37.05;;;10.20;99.90;;;;;;5083223;28;20234;-66
2021/11/14 10:45:36;;;;;;;53.35;35.17;;;10.20;99.90;;;;;;5094575;28;20219;-64
2021/11/14 10:48:06;;;;;;;53.05;37.20;;;10.20;99.90;;;;;;5094868;28;20232;-65
2021/11/14 10:50:35;;;;;;;51.67;36.47;;;10.30;99.90;;;;;;5094246;28;20293;-65
2021/11/14 10:53:06;;;;;;;52.20;36.33;;;10.30;99.90;;;;;;5094772;28;20247;-65
2021/11/14 10:55:40;;;;;;;52.55;34.80;;;10.30;99.90;;;;;;5093672;28;20219;-64
2021/11/14 10:58:07;;;;;;;61.40;37.95;;;10.40;99.90;;;;;;5094669;28;20223;-65
2021/11/14 11:00:35;;;;;;;52.95;36.08;;;10.40;99.90;;;;;;5094436;28;20227;-65
2021/11/14 11:03:03;;;;;;;59.20;37.10;;;10.50;99.90;;;;;;5094894;28;20235;-64
2021/11/14 11:05:31;;;;;;;55.63;38.50;;;10.50;99.90;;;;;;5094303;28;20241;-65
2021/11/14 11:08:00;;;;;;;60.78;39.58;;;10.50;99.90;;;;;;5094662;28;20238;-64
2021/11/14 11:10:31;;;;;;;52.17;36.78;;;10.60;99.90;;;;;;5093847;28;20234;-65
2021/11/14 11:13:00;;;;;;;55.53;37.38;;;10.60;99.90;;;;;;5094503;28;20234;-65
2021/11/14 11:15:27;;;;;;;60.90;37.35;;;10.70;99.90;;;;;;5082701;28;20231;-65
2021/11/14 11:17:55;;;;;;;53.40;35.17;;;10.70;99.90;;;;;;5074251;28;20232;-65
2021/11/14 11:20:24;;;;;;;60.92;41.42;;;10.80;99.90;;;;;;5081694;28;20227;-66
2021/11/14 11:22:53;;;;;;;58.05;39.00;;;10.80;99.90;;;;;;5093872;28;20223;-66
2021/11/14 11:25:35;;;;;;;58.70;37.80;;;10.80;99.90;;;;;;5092370;28;20234;-66
2021/11/14 11:28:04;;;;;;;59.72;39.03;;;10.90;99.90;;;;;;5074261;28;20234;-65
2021/11/14 11:30:34;;;;;;;59.97;39.20;;;10.90;99.90;;;;;;5073229;28;20231;-65
2021/11/14 11:33:02;;;;;;;62.58;39.28;;;10.90;99.90;;;;;;5074042;28;20227;-65
2021/11/14 11:35:30;;;;;;;61.17;39.20;;;10.90;99.90;;;;;;5073325;28;20627;-65
2021/11/14 11:37:57;;;;;;;63.35;42.25;;;10.90;99.90;;;;;;5073752;28;20224;-65
2021/11/14 11:40:25;;;;;;;60.05;38.60;;;10.90;99.90;;;;;;5073376;28;20224;-67
2021/11/14 11:42:53;;;;;;;60.72;42.00;;;11.00;99.90;;;;;;5079898;27;20226;-66
2021/11/14 11:45:28;;;;;;;68.65;42.63;;;10.90;99.90;;;;;;5093300;28;20211;-66
2021/11/14 11:47:57;;;;;;;60.60;39.60;;;11.00;99.90;;;;;;5093840;28;20218;-64
2021/11/14 11:50:26;;;;;;;58.30;39.70;;;11.00;99.90;;;;;;5093346;28;20566;-66
2021/11/14 11:52:54;;;;;;;64.22;41.10;;;11.00;99.90;;;;;;5093812;28;20712;-67
2021/11/14 11:55:23;;;;;;;57.80;38.97;;;11.00;99.90;;;;;;5080938;28;20284;-65
2021/11/14 11:57:51;;;;;;;56.65;37.92;;;11.00;99.90;;;;;;5093832;28;20223;-64
2021/11/14 12:00:19;;;;;;;48.53;33.78;;;11.00;99.90;;;;;;5093093;28;20570;-65
2021/11/14 12:02:48;;;;;;;62.70;37.75;;;11.00;99.90;;;;;;5093587;28;20223;-65
2021/11/14 12:05:18;;;;;;;56.42;38.28;;;11.00;99.90;;;;;;5093382;28;20773;-65
2021/11/14 12:07:47;;;;;;;58.00;37.45;;;11.00;99.90;;;;;;5093426;27;20219;-65
2021/11/14 12:10:18;;;;;;;55.55;36.90;;;11.10;99.90;;;;;;5092862;28;20219;-65
2021/11/14 12:12:50;;;;;;;63.83;40.95;;;11.10;99.90;;;;;;5093554;28;20256;-65
2021/11/14 12:15:21;;;;;;;57.78;38.72;;;11.10;99.90;;;;;;5092882;28;20219;-65
2021/11/14 12:17:55;;;;;;;65.90;41.42;;;11.10;99.90;;;;;;5093384;28;20219;-65
2021/11/14 12:20:26;;;;;;;67.95;42.92;;;11.10;99.90;;;;;;5092636;28;20219;-65
2021/11/14 12:22:56;;;;;;;57.58;40.05;;;11.20;99.90;;;;;;5092909;28;20227;-65
2021/11/14 12:25:27;;;;;;;64.38;41.42;;;11.20;99.90;;;;;;5091186;28;20224;-65
2021/11/14 12:28:03;;;;;;;69.35;42.70;;;11.10;99.90;;;;;;5093003;28;20223;-65
2021/11/14 12:30:30;;;;;;;63.95;40.63;;;11.10;99.90;;;;;;5092435;28;20227;-65
2021/11/14 12:33:00;;;;;;;64.00;41.90;;;11.10;99.90;;;;;;5093229;28;20219;-65
2021/11/14 12:35:35;;;;;;;62.25;41.22;;;11.10;99.90;;;;;;5092646;28;20250;-65